Pagrindinis puslapis
METAR-TAF:

METAR-TAF

Oro uostai :

Taloyoak, Nunavutas, Kanada

platuma: 69-33N, ilguma: 093-35W, Aukštis: 28 m

Dabartinis oras

Ataskaita buvo paskelbta 51 minutes, ne 12:00 UTC
Vėjas 2 kt iš Pietų
Temperatūra -37°C
Drėgmė 59%
Slėgis 1010 hPa
Matomumas: 16.1 km
Mažai debesys ne aukštis 2000 ft
ledo kristalai

METAR: CYYH 191200Z 17002KT 10SM IC FEW020 M37/M42 A2982 RMK SC1 FROIN AURBO SLP105

Laikas: 05:51 (12:51 UTC)

Prognozė

Ataskaita buvo paskelbta 1 valandą ir 13 minutes, ne 11:38 UTC
Prognozė galioja nuo 19 metu 12 UTC su 19 metu 24 UTC
Vėjas 5 kt iš Pietų/Pietryčių
Matomumas: 10 km
Giedras dangus

TAF: CYYH 191138Z 1912/1924 15005KT P6SM SKC RMK NXT FCST BY 191800Z

Orai ataskaitas ir orų prognozės (METAR, TAF).

turimą stotys yra geltonos ir raudonos taškus žemėlapyje.

Perkelti pele per norėdami pamatyti stoties vardą.

Tada spustelėkite, norėdami matyti oro stebėjimo ir prognozės.

Norėdami pakeisti žemėlapį: spustelėkite ant žalios mygtukų su juodo kryžiaus žemyn,; žalią mygtuką su brūkšneliu, jei norite nutolinti; arba žalių rodyklių gretimoms žemėlapius.


METAR-TAF: